Lundys Lane, Pennsylvania
Current Conditions -  °F | °C
As of 7:06 AM on Sunday 25 Jan 2015 (Local Time) from KHZY Reporting Station
Light Snow Light Snow  
Wind Chill: 22°   Ceiling: 3100
Heat Index: 27°   Visibility: 3mi
Dew Point: 25°   Wind: 5mph
Humidity: 92%   Direction: 10°N
Pressure: 29.79"   Gusts: NA
Location:  41.8831°N, 80.4041°W
Report Text: KHZY 251206Z AUTO 01004KT 3SM -SN BR FEW008 SCT022 OVC031 M03/M04 A2979 RMK AO2 P0000 T10281039
Loading
Personal Weather Stations






























Interactive Weather Map New forecast layout! Learn more

10-Day Weather Forecast

Advertisements
Track Severe Weather on mobile